sensor_id;sensor_type;location;lat;lon;timestamp;pressure;altitude;pressure_sealevel;temperature;humidity
32083;BME280;18597;48.328;7.932;2022-10-13T00:00:32;100060.03;;;11.55;100.00
32083;BME280;18597;48.328;7.932;2022-10-13T00:03:00;100068.81;;;11.57;100.00
32083;BME280;18597;48.328;7.932;2022-10-13T00:05:28;100062.09;;;11.62;100.00
32083;BME280;18597;48.328;7.932;2022-10-13T00:07:55;100057.94;;;11.70;100.00
32083;BME280;18597;48.328;7.932;2022-10-13T00:10:22;100064.38;;;11.67;100.00
32083;BME280;18597;48.328;7.932;2022-10-13T00:12:48;100063.13;;;11.71;100.00
32083;BME280;18597;48.328;7.932;2022-10-13T00:15:14;100060.22;;;11.74;100.00
32083;BME280;18597;48.328;7.932;2022-10-13T00:17:41;100064.97;;;11.82;100.00
32083;BME280;18597;48.328;7.932;2022-10-13T00:20:09;100058.63;;;11.83;100.00
32083;BME280;18597;48.328;7.932;2022-10-13T00:22:35;100058.25;;;11.87;100.00
32083;BME280;18597;48.328;7.932;2022-10-13T00:25:02;100060.94;;;11.87;100.00
32083;BME280;18597;48.328;7.932;2022-10-13T00:27:28;100056.66;;;11.85;100.00
32083;BME280;18597;48.328;7.932;2022-10-13T00:29:54;100059.63;;;11.71;100.00
32083;BME280;18597;48.328;7.932;2022-10-13T00:32:20;100066.16;;;11.46;100.00
32083;BME280;18597;48.328;7.932;2022-10-13T00:34:45;100058.13;;;11.46;100.00
32083;BME280;18597;48.328;7.932;2022-10-13T00:37:11;100065.09;;;11.37;100.00
32083;BME280;18597;48.328;7.932;2022-10-13T00:39:37;100060.16;;;11.21;100.00
32083;BME280;18597;48.328;7.932;2022-10-13T00:42:06;100055.66;;;11.10;100.00
32083;BME280;18597;48.328;7.932;2022-10-13T00:47:39;100053.88;;;11.00;100.00
32083;BME280;18597;48.328;7.932;2022-10-13T00:50:10;100063.72;;;10.99;100.00
32083;BME280;18597;48.328;7.932;2022-10-13T00:52:38;100058.41;;;11.31;100.00
32083;BME280;18597;48.328;7.932;2022-10-13T00:55:06;100055.38;;;11.36;100.00
32083;BME280;18597;48.328;7.932;2022-10-13T00:57:33;100049.47;;;11.21;100.00
32083;BME280;18597;48.328;7.932;2022-10-13T01:00:00;100050.22;;;11.01;100.00
32083;BME280;18597;48.328;7.932;2022-10-13T01:02:31;100041.22;;;11.02;100.00
32083;BME280;18597;48.328;7.932;2022-10-13T01:04:59;100047.75;;;11.09;100.00
32083;BME280;18597;48.328;7.932;2022-10-13T01:07:25;100038.44;;;11.03;100.00
32083;BME280;18597;48.328;7.932;2022-10-13T01:09:51;100029.94;;;10.98;100.00
32083;BME280;18597;48.328;7.932;2022-10-13T01:15:11;100045.38;;;10.72;100.00
32083;BME280;18597;48.328;7.932;2022-10-13T01:21:34;100043.31;;;10.65;100.00
32083;BME280;18597;48.328;7.932;2022-10-13T01:24:35;100043.94;;;10.68;100.00
32083;BME280;18597;48.328;7.932;2022-10-13T01:27:42;100044.28;;;10.75;100.00
32083;BME280;18597;48.328;7.932;2022-10-13T01:30:18;100041.72;;;10.96;100.00
32083;BME280;18597;48.328;7.932;2022-10-13T01:38:47;100040.50;;;11.00;100.00
32083;BME280;18597;48.328;7.932;2022-10-13T01:41:28;100037.47;;;11.04;100.00
32083;BME280;18597;48.328;7.932;2022-10-13T01:44:10;100037.50;;;11.25;100.00
32083;BME280;18597;48.328;7.932;2022-10-13T01:46:41;100041.94;;;11.15;100.00
32083;BME280;18597;48.328;7.932;2022-10-13T01:49:12;100041.84;;;11.05;100.00
32083;BME280;18597;48.328;7.932;2022-10-13T01:51:39;100048.88;;;11.06;100.00
32083;BME280;18597;48.328;7.932;2022-10-13T01:54:06;100051.53;;;10.95;100.00
32083;BME280;18597;48.328;7.932;2022-10-13T01:56:32;100051.94;;;10.91;100.00
32083;BME280;18597;48.328;7.932;2022-10-13T01:59:01;100051.53;;;10.95;100.00
32083;BME280;18597;48.328;7.932;2022-10-13T02:02:12;100044.50;;;10.94;100.00
32083;BME280;18597;48.328;7.932;2022-10-13T02:05:18;100042.09;;;10.91;100.00
32083;BME280;18597;48.328;7.932;2022-10-13T02:08:00;100036.25;;;10.86;100.00
32083;BME280;18597;48.328;7.932;2022-10-13T02:10:46;100045.22;;;11.07;100.00
32083;BME280;18597;48.328;7.932;2022-10-13T02:13:19;100046.47;;;11.03;100.00
32083;BME280;18597;48.328;7.932;2022-10-13T02:15:50;100043.63;;;11.16;100.00
32083;BME280;18597;48.328;7.932;2022-10-13T02:18:22;100045.72;;;11.13;100.00
32083;BME280;18597;48.328;7.932;2022-10-13T02:20:50;100040.97;;;11.05;100.00
32083;BME280;18597;48.328;7.932;2022-10-13T02:23:17;100046.34;;;11.05;100.00
32083;BME280;18597;48.328;7.932;2022-10-13T02:25:44;100051.44;;;10.97;100.00
32083;BME280;18597;48.328;7.932;2022-10-13T02:28:12;100052.28;;;10.97;100.00
32083;BME280;18597;48.328;7.932;2022-10-13T02:30:39;100048.50;;;11.00;100.00
32083;BME280;18597;48.328;7.932;2022-10-13T02:33:06;100049.97;;;10.93;100.00
32083;BME280;18597;48.328;7.932;2022-10-13T02:35:32;100051.69;;;11.05;100.00
32083;BME280;18597;48.328;7.932;2022-10-13T02:37:59;100054.00;;;10.87;100.00
32083;BME280;18597;48.328;7.932;2022-10-13T02:40:25;100046.81;;;10.99;100.00
32083;BME280;18597;48.328;7.932;2022-10-13T02:42:52;100041.38;;;10.78;100.00
32083;BME280;18597;48.328;7.932;2022-10-13T02:45:18;100040.16;;;10.71;100.00
32083;BME280;18597;48.328;7.932;2022-10-13T02:47:44;100037.50;;;10.82;100.00
32083;BME280;18597;48.328;7.932;2022-10-13T02:50:09;100043.91;;;10.57;100.00
32083;BME280;18597;48.328;7.932;2022-10-13T02:52:35;100035.03;;;10.56;100.00
32083;BME280;18597;48.328;7.932;2022-10-13T02:55:02;100029.34;;;10.50;100.00
32083;BME280;18597;48.328;7.932;2022-10-13T02:57:28;100025.47;;;10.43;100.00
32083;BME280;18597;48.328;7.932;2022-10-13T02:59:54;100018.63;;;10.27;100.00
32083;BME280;18597;48.328;7.932;2022-10-13T03:02:20;100009.28;;;10.22;100.00
32083;BME280;18597;48.328;7.932;2022-10-13T03:04:48;100005.84;;;10.20;100.00
32083;BME280;18597;48.328;7.932;2022-10-13T03:07:14;100010.59;;;10.16;100.00
32083;BME280;18597;48.328;7.932;2022-10-13T03:09:40;100016.06;;;10.15;100.00
32083;BME280;18597;48.328;7.932;2022-10-13T03:12:06;100010.66;;;10.39;100.00
32083;BME280;18597;48.328;7.932;2022-10-13T03:14:32;100019.63;;;10.38;100.00
32083;BME280;18597;48.328;7.932;2022-10-13T03:16:58;100016.72;;;10.30;100.00
32083;BME280;18597;48.328;7.932;2022-10-13T03:19:24;100025.63;;;10.06;100.00
32083;BME280;18597;48.328;7.932;2022-10-13T03:21:49;100023.38;;;9.89;100.00
32083;BME280;18597;48.328;7.932;2022-10-13T03:24:15;100023.00;;;9.82;100.00
32083;BME280;18597;48.328;7.932;2022-10-13T03:26:41;100019.78;;;10.12;100.00
32083;BME280;18597;48.328;7.932;2022-10-13T03:29:09;100021.56;;;10.24;100.00
32083;BME280;18597;48.328;7.932;2022-10-13T03:31:36;100013.66;;;10.34;100.00
32083;BME280;18597;48.328;7.932;2022-10-13T03:34:02;100013.53;;;10.24;100.00
32083;BME280;18597;48.328;7.932;2022-10-13T03:36:27;100001.09;;;10.01;100.00
32083;BME280;18597;48.328;7.932;2022-10-13T03:38:53;100006.06;;;9.83;100.00
32083;BME280;18597;48.328;7.932;2022-10-13T03:41:19;99998.19;;;10.04;100.00
32083;BME280;18597;48.328;7.932;2022-10-13T03:43:45;100004.03;;;10.09;100.00
32083;BME280;18597;48.328;7.932;2022-10-13T03:46:14;100006.06;;;9.83;100.00
32083;BME280;18597;48.328;7.932;2022-10-13T03:48:41;100011.59;;;9.69;100.00
32083;BME280;18597;48.328;7.932;2022-10-13T03:51:09;100003.56;;;9.69;100.00
32083;BME280;18597;48.328;7.932;2022-10-13T03:53:36;100007.81;;;9.71;100.00
32083;BME280;18597;48.328;7.932;2022-10-13T03:56:03;100005.41;;;9.68;100.00
32083;BME280;18597;48.328;7.932;2022-10-13T03:58:30;100017.13;;;9.66;100.00
32083;BME280;18597;48.328;7.932;2022-10-13T04:00:57;100010.81;;;9.91;100.00
32083;BME280;18597;48.328;7.932;2022-10-13T04:03:26;100014.28;;;9.80;100.00
32083;BME280;18597;48.328;7.932;2022-10-13T04:05:52;100017.19;;;9.88;100.00
32083;BME280;18597;48.328;7.932;2022-10-13T04:08:18;100025.59;;;9.95;100.00
32083;BME280;18597;48.328;7.932;2022-10-13T04:10:43;100022.31;;;9.91;100.00
32083;BME280;18597;48.328;7.932;2022-10-13T04:13:09;100023.16;;;9.92;100.00
32083;BME280;18597;48.328;7.932;2022-10-13T04:15:38;100020.50;;;9.92;100.00
32083;BME280;18597;48.328;7.932;2022-10-13T04:18:06;100027.66;;;10.02;100.00
32083;BME280;18597;48.328;7.932;2022-10-13T04:20:38;100014.97;;;10.17;100.00
32083;BME280;18597;48.328;7.932;2022-10-13T04:23:05;100001.53;;;10.30;100.00
32083;BME280;18597;48.328;7.932;2022-10-13T04:25:35;100003.84;;;10.35;100.00
32083;BME280;18597;48.328;7.932;2022-10-13T04:28:03;99999.34;;;10.35;100.00
32083;BME280;18597;48.328;7.932;2022-10-13T04:30:29;100004.44;;;10.27;100.00
32083;BME280;18597;48.328;7.932;2022-10-13T04:32:54;100001.91;;;10.37;100.00
32083;BME280;18597;48.328;7.932;2022-10-13T04:35:20;99994.25;;;10.32;100.00
32083;BME280;18597;48.328;7.932;2022-10-13T04:37:46;99991.72;;;10.31;100.00
32083;BME280;18597;48.328;7.932;2022-10-13T04:40:12;99991.91;;;10.16;100.00
32083;BME280;18597;48.328;7.932;2022-10-13T04:42:38;99988.13;;;10.08;100.00
32083;BME280;18597;48.328;7.932;2022-10-13T04:45:04;99989.09;;;10.07;100.00
32083;BME280;18597;48.328;7.932;2022-10-13T04:47:30;99992.63;;;10.07;100.00
32083;BME280;18597;48.328;7.932;2022-10-13T04:49:56;99992.03;;;10.15;100.00
32083;BME280;18597;48.328;7.932;2022-10-13T04:52:22;99992.63;;;10.18;100.00
32083;BME280;18597;48.328;7.932;2022-10-13T04:54:47;99985.47;;;10.19;100.00
32083;BME280;18597;48.328;7.932;2022-10-13T04:57:13;99987.53;;;10.15;100.00
32083;BME280;18597;48.328;7.932;2022-10-13T04:59:39;99982.41;;;10.01;100.00
32083;BME280;18597;48.328;7.932;2022-10-13T05:02:05;99983.91;;;10.16;100.00
32083;BME280;18597;48.328;7.932;2022-10-13T05:04:31;99979.81;;;10.23;100.00
32083;BME280;18597;48.328;7.932;2022-10-13T05:06:56;99975.63;;;10.19;100.00
32083;BME280;18597;48.328;7.932;2022-10-13T05:09:22;99968.97;;;10.14;100.00
32083;BME280;18597;48.328;7.932;2022-10-13T05:11:48;99973.94;;;10.18;100.00
32083;BME280;18597;48.328;7.932;2022-10-13T05:14:14;99972.63;;;10.13;100.00
32083;BME280;18597;48.328;7.932;2022-10-13T05:16:39;99976.47;;;10.09;100.00
32083;BME280;18597;48.328;7.932;2022-10-13T05:19:05;99972.47;;;10.03;100.00
32083;BME280;18597;48.328;7.932;2022-10-13T05:21:31;99985.34;;;10.09;100.00
32083;BME280;18597;48.328;7.932;2022-10-13T05:23:57;99978.56;;;10.16;100.00
32083;BME280;18597;48.328;7.932;2022-10-13T05:26:27;99971.75;;;10.12;100.00
32083;BME280;18597;48.328;7.932;2022-10-13T05:28:56;99975.88;;;10.16;100.00
32083;BME280;18597;48.328;7.932;2022-10-13T05:31:24;99976.59;;;10.18;100.00
32083;BME280;18597;48.328;7.932;2022-10-13T05:33:51;99962.53;;;10.16;100.00
32083;BME280;18597;48.328;7.932;2022-10-13T05:36:21;99965.94;;;10.18;100.00
32083;BME280;18597;48.328;7.932;2022-10-13T05:38:51;99970.91;;;10.12;100.00
32083;BME280;18597;48.328;7.932;2022-10-13T05:41:18;99961.69;;;10.16;100.00
32083;BME280;18597;48.328;7.932;2022-10-13T05:43:44;99965.72;;;10.21;100.00
32083;BME280;18597;48.328;7.932;2022-10-13T05:46:10;99964.84;;;10.21;100.00
32083;BME280;18597;48.328;7.932;2022-10-13T05:48:37;99971.53;;;10.26;100.00
32083;BME280;18597;48.328;7.932;2022-10-13T05:51:11;99974.13;;;10.28;100.00
32083;BME280;18597;48.328;7.932;2022-10-13T05:53:42;99972.38;;;10.27;100.00
32083;BME280;18597;48.328;7.932;2022-10-13T05:56:14;99976.16;;;10.24;100.00
32083;BME280;18597;48.328;7.932;2022-10-13T05:58:48;99979.56;;;10.26;100.00
32083;BME280;18597;48.328;7.932;2022-10-13T06:01:19;99972.88;;;10.32;100.00
32083;BME280;18597;48.328;7.932;2022-10-13T06:03:47;99976.53;;;10.31;100.00
32083;BME280;18597;48.328;7.932;2022-10-13T06:06:15;99970.34;;;10.53;100.00
32083;BME280;18597;48.328;7.932;2022-10-13T06:08:41;99967.06;;;10.61;100.00
32083;BME280;18597;48.328;7.932;2022-10-13T06:11:08;99961.22;;;10.67;100.00
32083;BME280;18597;48.328;7.932;2022-10-13T06:13:33;99960.72;;;10.62;100.00
32083;BME280;18597;48.328;7.932;2022-10-13T06:16:00;99964.00;;;10.65;100.00
32083;BME280;18597;48.328;7.932;2022-10-13T06:18:27;99971.53;;;10.71;100.00
32083;BME280;18597;48.328;7.932;2022-10-13T06:20:53;99978.06;;;10.78;100.00
32083;BME280;18597;48.328;7.932;2022-10-13T06:23:18;99966.75;;;10.86;100.00
32083;BME280;18597;48.328;7.932;2022-10-13T06:25:47;99962.63;;;10.93;100.00
32083;BME280;18597;48.328;7.932;2022-10-13T06:28:13;99961.28;;;10.99;100.00
32083;BME280;18597;48.328;7.932;2022-10-13T06:30:39;99963.94;;;10.99;100.00
32083;BME280;18597;48.328;7.932;2022-10-13T06:33:08;99959.56;;;10.98;100.00
32083;BME280;18597;48.328;7.932;2022-10-13T06:35:34;99977.31;;;10.99;100.00
32083;BME280;18597;48.328;7.932;2022-10-13T06:38:01;99962.19;;;11.09;100.00
32083;BME280;18597;48.328;7.932;2022-10-13T06:40:27;99971.41;;;11.27;100.00
32083;BME280;18597;48.328;7.932;2022-10-13T06:42:53;99974.69;;;11.52;100.00
32083;BME280;18597;48.328;7.932;2022-10-13T06:45:18;99976.34;;;11.64;100.00
32083;BME280;18597;48.328;7.932;2022-10-13T06:47:44;99971.59;;;11.88;100.00
32083;BME280;18597;48.328;7.932;2022-10-13T06:50:11;99977.91;;;12.08;100.00
32083;BME280;18597;48.328;7.932;2022-10-13T06:52:37;99969.94;;;12.18;100.00
32083;BME280;18597;48.328;7.932;2022-10-13T06:55:04;99961.94;;;12.28;100.00
32083;BME280;18597;48.328;7.932;2022-10-13T06:57:30;99966.63;;;12.35;100.00
32083;BME280;18597;48.328;7.932;2022-10-13T06:59:56;99973.63;;;12.47;100.00
32083;BME280;18597;48.328;7.932;2022-10-13T07:02:22;99957.19;;;12.71;100.00
32083;BME280;18597;48.328;7.932;2022-10-13T07:04:48;99959.28;;;12.68;100.00
32083;BME280;18597;48.328;7.932;2022-10-13T07:07:14;99959.28;;;12.68;100.00
32083;BME280;18597;48.328;7.932;2022-10-13T07:09:41;99956.19;;;12.72;100.00
32083;BME280;18597;48.328;7.932;2022-10-13T07:12:07;99947.28;;;12.62;100.00
32083;BME280;18597;48.328;7.932;2022-10-13T07:14:33;99946.25;;;12.54;100.00
32083;BME280;18597;48.328;7.932;2022-10-13T07:16:59;99952.72;;;12.41;100.00
32083;BME280;18597;48.328;7.932;2022-10-13T07:19:25;99941.31;;;12.49;100.00
32083;BME280;18597;48.328;7.932;2022-10-13T07:21:51;99949.38;;;12.59;100.00
32083;BME280;18597;48.328;7.932;2022-10-13T07:24:17;99958.56;;;12.66;100.00
32083;BME280;18597;48.328;7.932;2022-10-13T07:26:43;99963.38;;;12.72;100.00
32083;BME280;18597;48.328;7.932;2022-10-13T07:29:09;99972.75;;;12.87;100.00
32083;BME280;18597;48.328;7.932;2022-10-13T07:31:35;99973.47;;;12.99;100.00
32083;BME280;18597;48.328;7.932;2022-10-13T07:34:01;99964.16;;;13.13;100.00
32083;BME280;18597;48.328;7.932;2022-10-13T07:36:31;99967.28;;;13.18;100.00
32083;BME280;18597;48.328;7.932;2022-10-13T07:38:57;99959.41;;;13.26;100.00
32083;BME280;18597;48.328;7.932;2022-10-13T07:41:23;99963.69;;;13.38;100.00
32083;BME280;18597;48.328;7.932;2022-10-13T07:43:54;99957.00;;;13.52;100.00
32083;BME280;18597;48.328;7.932;2022-10-13T07:46:20;99952.22;;;13.55;100.00
32083;BME280;18597;48.328;7.932;2022-10-13T07:48:46;99952.06;;;13.67;100.00
32083;BME280;18597;48.328;7.932;2022-10-13T07:51:12;99947.53;;;13.77;100.00
32083;BME280;18597;48.328;7.932;2022-10-13T07:53:40;99956.41;;;13.87;100.00
32083;BME280;18597;48.328;7.932;2022-10-13T07:56:10;99947.75;;;14.03;100.00
32083;BME280;18597;48.328;7.932;2022-10-13T07:58:39;99944.38;;;14.01;100.00
32083;BME280;18597;48.328;7.932;2022-10-13T08:01:05;99938.84;;;14.02;100.00
32083;BME280;18597;48.328;7.932;2022-10-13T08:03:31;99936.56;;;14.07;100.00
32083;BME280;18597;48.328;7.932;2022-10-13T08:05:59;99936.97;;;14.12;100.00
32083;BME280;18597;48.328;7.932;2022-10-13T08:08:26;99938.06;;;14.20;100.00
32083;BME280;18597;48.328;7.932;2022-10-13T08:10:52;99935.00;;;14.05;100.00
32083;BME280;18597;48.328;7.932;2022-10-13T08:13:18;99940.69;;;14.02;100.00
32083;BME280;18597;48.328;7.932;2022-10-13T08:15:44;99938.97;;;14.10;100.00
32083;BME280;18597;48.328;7.932;2022-10-13T08:18:13;99944.94;;;14.41;100.00
32083;BME280;18597;48.328;7.932;2022-10-13T08:20:41;99939.78;;;14.85;100.00
32083;BME280;18597;48.328;7.932;2022-10-13T08:23:08;99935.72;;;15.17;100.00
32083;BME280;18597;48.328;7.932;2022-10-13T08:25:38;99937.19;;;15.47;100.00
32083;BME280;18597;48.328;7.932;2022-10-13T08:28:06;99939.19;;;15.63;100.00
32083;BME280;18597;48.328;7.932;2022-10-13T08:30:40;99939.94;;;15.91;100.00
32083;BME280;18597;48.328;7.932;2022-10-13T08:33:06;99943.78;;;16.14;100.00
32083;BME280;18597;48.328;7.932;2022-10-13T08:35:32;99936.19;;;16.44;100.00
32083;BME280;18597;48.328;7.932;2022-10-13T08:37:58;99928.38;;;16.67;100.00
32083;BME280;18597;48.328;7.932;2022-10-13T08:40:24;99933.75;;;16.67;100.00
32083;BME280;18597;48.328;7.932;2022-10-13T08:42:49;99919.16;;;16.77;99.77
32083;BME280;18597;48.328;7.932;2022-10-13T08:45:24;99913.28;;;16.82;100.00
32083;BME280;18597;48.328;7.932;2022-10-13T08:47:59;99916.88;;;17.15;100.00
32083;BME280;18597;48.328;7.932;2022-10-13T08:50:31;99914.56;;;17.61;98.75
32083;BME280;18597;48.328;7.932;2022-10-13T08:53:02;99912.16;;;18.07;94.72
32083;BME280;18597;48.328;7.932;2022-10-13T08:55:51;99909.16;;;18.41;85.16
32083;BME280;18597;48.328;7.932;2022-10-13T08:58:27;99910.25;;;18.63;85.33
32083;BME280;18597;48.328;7.932;2022-10-13T09:01:20;99897.75;;;18.70;85.88
32083;BME280;18597;48.328;7.932;2022-10-13T09:06:31;99906.66;;;18.78;84.86
32083;BME280;18597;48.328;7.932;2022-10-13T09:09:00;99899.13;;;18.57;84.94
32083;BME280;18597;48.328;7.932;2022-10-13T09:11:30;99899.63;;;18.22;88.70
32083;BME280;18597;48.328;7.932;2022-10-13T09:14:02;99902.72;;;17.94;91.50
32083;BME280;18597;48.328;7.932;2022-10-13T09:16:36;99902.69;;;18.11;92.42
32083;BME280;18597;48.328;7.932;2022-10-13T09:19:26;99905.16;;;18.28;89.41
32083;BME280;18597;48.328;7.932;2022-10-13T09:21:57;99900.84;;;18.50;90.49
32083;BME280;18597;48.328;7.932;2022-10-13T09:24:37;99905.38;;;18.58;89.23
32083;BME280;18597;48.328;7.932;2022-10-13T09:27:13;99902.78;;;18.73;89.05
32083;BME280;18597;48.328;7.932;2022-10-13T09:29:40;99901.56;;;18.83;88.19
32083;BME280;18597;48.328;7.932;2022-10-13T09:32:16;99892.75;;;18.90;88.62
32083;BME280;18597;48.328;7.932;2022-10-13T09:34:42;99890.69;;;18.92;87.85
32083;BME280;18597;48.328;7.932;2022-10-13T09:37:23;99903.56;;;18.90;87.75
32083;BME280;18597;48.328;7.932;2022-10-13T09:40:13;99904.03;;;18.93;88.27
32083;BME280;18597;48.328;7.932;2022-10-13T09:42:50;99896.53;;;19.03;89.28
32083;BME280;18597;48.328;7.932;2022-10-13T09:45:19;99896.78;;;19.17;88.91
32083;BME280;18597;48.328;7.932;2022-10-13T09:47:56;99904.38;;;19.21;88.28
32083;BME280;18597;48.328;7.932;2022-10-13T09:50:29;99909.47;;;19.39;86.41
32083;BME280;18597;48.328;7.932;2022-10-13T09:53:33;99908.13;;;19.66;82.81
32083;BME280;18597;48.328;7.932;2022-10-13T09:56:28;99914.91;;;19.62;81.49
32083;BME280;18597;48.328;7.932;2022-10-13T10:02:00;99901.44;;;20.06;79.89
32083;BME280;18597;48.328;7.932;2022-10-13T10:04:35;99896.47;;;20.39;76.27
32083;BME280;18597;48.328;7.932;2022-10-13T10:07:16;99899.78;;;20.49;75.95
32083;BME280;18597;48.328;7.932;2022-10-13T10:09:50;99900.97;;;20.62;74.45
32083;BME280;18597;48.328;7.932;2022-10-13T10:12:21;99901.56;;;20.57;74.77
32083;BME280;18597;48.328;7.932;2022-10-13T10:14:48;99897.63;;;20.60;75.70
32083;BME280;18597;48.328;7.932;2022-10-13T10:17:40;99900.88;;;20.70;75.17
32083;BME280;18597;48.328;7.932;2022-10-13T10:21:07;99904.66;;;20.90;75.08
32083;BME280;18597;48.328;7.932;2022-10-13T10:23:53;99907.09;;;20.85;73.23
32083;BME280;18597;48.328;7.932;2022-10-13T10:27:02;99907.50;;;20.82;73.56
32083;BME280;18597;48.328;7.932;2022-10-13T10:30:01;99897.84;;;20.94;73.74
32083;BME280;18597;48.328;7.932;2022-10-13T10:33:08;99894.84;;;20.89;72.15
32083;BME280;18597;48.328;7.932;2022-10-13T10:36:00;99895.53;;;20.76;73.74
32083;BME280;18597;48.328;7.932;2022-10-13T10:38:56;99898.69;;;20.95;72.88
32083;BME280;18597;48.328;7.932;2022-10-13T10:41:43;99892.59;;;21.14;73.29
32083;BME280;18597;48.328;7.932;2022-10-13T10:44:16;99898.56;;;21.24;72.92
32083;BME280;18597;48.328;7.932;2022-10-13T10:46:50;99890.97;;;21.35;71.67
32083;BME280;18597;48.328;7.932;2022-10-13T10:49:36;99900.28;;;21.47;70.60
32083;BME280;18597;48.328;7.932;2022-10-13T10:52:14;99879.31;;;21.69;69.28
32083;BME280;18597;48.328;7.932;2022-10-13T10:54:55;99867.69;;;21.53;68.11
32083;BME280;18597;48.328;7.932;2022-10-13T10:57:49;99851.84;;;21.57;65.84
32083;BME280;18597;48.328;7.932;2022-10-13T11:00:19;99832.97;;;21.49;64.69
32083;BME280;18597;48.328;7.932;2022-10-13T11:03:27;99831.13;;;20.70;66.44
32083;BME280;18597;48.328;7.932;2022-10-13T11:06:20;99831.13;;;21.28;63.14
32083;BME280;18597;48.328;7.932;2022-10-13T11:08:48;99834.50;;;21.58;62.22
32083;BME280;18597;48.328;7.932;2022-10-13T11:11:32;99834.34;;;21.94;60.63
32083;BME280;18597;48.328;7.932;2022-10-13T11:19:32;99834.31;;;22.29;57.92
32083;BME280;18597;48.328;7.932;2022-10-13T11:24:45;99828.00;;;22.15;57.69
32083;BME280;18597;48.328;7.932;2022-10-13T11:27:22;99821.59;;;22.29;57.91
32083;BME280;18597;48.328;7.932;2022-10-13T11:29:56;99813.50;;;22.56;56.13
32083;BME280;18597;48.328;7.932;2022-10-13T11:41:16;99807.78;;;23.25;52.04
32083;BME280;18597;48.328;7.932;2022-10-13T11:47:39;99799.00;;;23.16;52.29
32083;BME280;18597;48.328;7.932;2022-10-13T11:50:07;99791.22;;;23.20;51.13
32083;BME280;18597;48.328;7.932;2022-10-13T11:53:22;99789.34;;;23.27;51.05
32083;BME280;18597;48.328;7.932;2022-10-13T11:55:55;99795.00;;;23.32;50.94
32083;BME280;18597;48.328;7.932;2022-10-13T11:58:28;99779.09;;;23.29;50.52
32083;BME280;18597;48.328;7.932;2022-10-13T12:03:42;99769.25;;;23.28;50.68
32083;BME280;18597;48.328;7.932;2022-10-13T12:06:29;99779.28;;;23.34;51.03
32083;BME280;18597;48.328;7.932;2022-10-13T12:09:04;99782.22;;;23.39;51.31
32083;BME280;18597;48.328;7.932;2022-10-13T12:11:36;99778.44;;;23.40;51.96
32083;BME280;18597;48.328;7.932;2022-10-13T12:14:17;99774.66;;;23.35;52.48
32083;BME280;18597;48.328;7.932;2022-10-13T12:17:00;99773.63;;;23.09;53.71
32083;BME280;18597;48.328;7.932;2022-10-13T12:19:30;99762.88;;;22.81;54.59
32083;BME280;18597;48.328;7.932;2022-10-13T12:21:59;99747.75;;;22.59;55.82
32083;BME280;18597;48.328;7.932;2022-10-13T12:24:28;99758.00;;;22.57;56.73
32083;BME280;18597;48.328;7.932;2022-10-13T12:26:55;99753.19;;;22.46;56.76
32083;BME280;18597;48.328;7.932;2022-10-13T12:29:27;99750.19;;;22.34;58.18
32083;BME280;18597;48.328;7.932;2022-10-13T12:31:54;99755.47;;;22.49;57.77
32083;BME280;18597;48.328;7.932;2022-10-13T12:34:28;99760.72;;;22.57;58.13
32083;BME280;18597;48.328;7.932;2022-10-13T12:37:00;99746.88;;;22.52;57.54
32083;BME280;18597;48.328;7.932;2022-10-13T12:39:30;99748.78;;;22.45;57.73
32083;BME280;18597;48.328;7.932;2022-10-13T12:41:59;99746.25;;;22.50;58.25
32083;BME280;18597;48.328;7.932;2022-10-13T12:44:29;99754.47;;;22.63;57.71
32083;BME280;18597;48.328;7.932;2022-10-13T12:46:57;99751.13;;;22.74;57.90
32083;BME280;18597;48.328;7.932;2022-10-13T12:49:28;99753.28;;;22.85;57.14
32083;BME280;18597;48.328;7.932;2022-10-13T12:52:11;99751.19;;;23.07;56.52
32083;BME280;18597;48.328;7.932;2022-10-13T12:54:48;99747.22;;;23.03;56.38
32083;BME280;18597;48.328;7.932;2022-10-13T12:57:24;99756.22;;;22.97;56.42
32083;BME280;18597;48.328;7.932;2022-10-13T12:59:51;99751.97;;;22.81;56.28
32083;BME280;18597;48.328;7.932;2022-10-13T13:02:25;99758.06;;;22.83;55.96
32083;BME280;18597;48.328;7.932;2022-10-13T13:04:53;99755.13;;;22.85;55.26
32083;BME280;18597;48.328;7.932;2022-10-13T13:07:33;99747.63;;;22.87;55.00
32083;BME280;18597;48.328;7.932;2022-10-13T13:12:42;99754.91;;;22.73;56.00
32083;BME280;18597;48.328;7.932;2022-10-13T13:15:32;99752.78;;;22.62;56.06
32083;BME280;18597;48.328;7.932;2022-10-13T13:18:37;99751.13;;;22.67;55.60
32083;BME280;18597;48.328;7.932;2022-10-13T13:21:07;99748.41;;;22.61;55.93
32083;BME280;18597;48.328;7.932;2022-10-13T13:23:34;99750.09;;;22.68;55.75
32083;BME280;18597;48.328;7.932;2022-10-13T13:26:12;99746.72;;;22.73;55.47
32083;BME280;18597;48.328;7.932;2022-10-13T13:28:55;99743.63;;;22.83;55.02
32083;BME280;18597;48.328;7.932;2022-10-13T13:31:24;99735.22;;;22.71;55.73
32083;BME280;18597;48.328;7.932;2022-10-13T13:33:50;99747.97;;;22.64;56.43
32083;BME280;18597;48.328;7.932;2022-10-13T13:38:53;99733.47;;;22.43;57.02
32083;BME280;18597;48.328;7.932;2022-10-13T13:41:20;99738.91;;;22.30;57.78
32083;BME280;18597;48.328;7.932;2022-10-13T13:43:45;99732.59;;;22.23;58.93
32083;BME280;18597;48.328;7.932;2022-10-13T13:46:19;99734.22;;;22.18;59.52
32083;BME280;18597;48.328;7.932;2022-10-13T13:48:46;99728.31;;;22.07;59.23
32083;BME280;18597;48.328;7.932;2022-10-13T13:51:12;99715.72;;;22.00;59.99
32083;BME280;18597;48.328;7.932;2022-10-13T13:53:38;99721.72;;;21.88;60.46
32083;BME280;18597;48.328;7.932;2022-10-13T13:56:04;99710.56;;;21.70;60.94
32083;BME280;18597;48.328;7.932;2022-10-13T13:58:30;99721.16;;;21.58;61.93
32083;BME280;18597;48.328;7.932;2022-10-13T14:00:58;99732.34;;;21.42;62.26